createdAt,value
2022-08-26T00:03:39.784Z,100124.72
2022-08-26T00:08:43.666Z,100129.88
2022-08-26T00:13:49.869Z,100122.97
2022-08-26T00:18:53.657Z,100122.13
2022-08-26T00:23:56.683Z,100125.56
2022-08-26T00:28:59.776Z,100126.41
2022-08-26T00:34:03.057Z,100141.00
2022-08-26T00:39:07.771Z,100139.25
2022-08-26T00:44:14.069Z,100138.38
2022-08-26T00:49:21.113Z,100146.13
2022-08-26T00:54:26.945Z,100158.09
2022-08-26T00:59:33.033Z,100155.50
2022-08-26T01:04:37.577Z,100163.16
2022-08-26T01:09:40.493Z,100169.91
2022-08-26T01:14:43.520Z,100169.91
2022-08-26T01:20:07.378Z,100176.66
2022-08-26T01:25:12.750Z,100165.44
2022-08-26T01:30:15.806Z,100175.63
2022-08-26T01:35:19.538Z,100168.53
2022-08-26T01:40:26.562Z,100182.94
2022-08-26T01:45:31.471Z,100172.28
2022-08-26T01:50:36.236Z,100173.97
2022-08-26T01:55:42.093Z,100183.16
2022-08-26T02:00:45.729Z,100194.41
2022-08-26T02:06:03.538Z,100192.31
2022-08-26T02:11:07.143Z,100186.72
2022-08-26T02:16:10.537Z,100191.91
2022-08-26T02:21:13.884Z,100193.00
2022-08-26T02:26:20.906Z,100202.16
2022-08-26T02:31:24.184Z,100202.53
2022-08-26T02:36:28.682Z,100210.31
2022-08-26T02:41:31.538Z,100211.97
2022-08-26T02:46:36.024Z,100204.88
2022-08-26T02:51:40.219Z,100203.94
2022-08-26T02:56:46.117Z,100216.66
2022-08-26T03:01:50.016Z,100214.56
2022-08-26T03:06:53.133Z,100223.31
2022-08-26T03:11:58.585Z,100214.28
2022-08-26T03:17:01.449Z,100225.56
2022-08-26T03:22:05.226Z,100226.47
2022-08-26T03:27:07.913Z,100227.00
2022-08-26T03:32:10.782Z,100228.97
2022-08-26T03:37:13.544Z,100235.94
2022-08-26T03:42:16.685Z,100238.53
2022-08-26T03:47:20.467Z,100237.09
2022-08-26T03:52:23.232Z,100231.53
2022-08-26T03:57:26.215Z,100230.00
2022-08-26T04:02:30.741Z,100237.63
2022-08-26T04:07:33.759Z,100228.53
2022-08-26T04:12:37.746Z,100234.25
2022-08-26T04:17:41.005Z,100237.00
2022-08-26T04:22:45.862Z,100237.69
2022-08-26T04:27:48.737Z,100242.91
2022-08-26T04:32:53.333Z,100242.50
2022-08-26T04:37:56.131Z,100225.84
2022-08-26T04:42:58.948Z,100232.97
2022-08-26T04:48:01.817Z,100233.34
2022-08-26T04:53:07.188Z,100228.16
2022-08-26T04:58:10.616Z,100228.94
2022-08-26T05:03:14.896Z,100229.13
2022-08-26T05:08:20.793Z,100239.50
2022-08-26T05:13:26.583Z,100234.66
2022-08-26T05:18:30.674Z,100242.84
2022-08-26T05:23:36.268Z,100234.13
2022-08-26T05:28:40.020Z,100239.53
2022-08-26T05:33:42.943Z,100225.50
2022-08-26T05:38:46.496Z,100241.38
2022-08-26T05:43:49.707Z,100256.81
2022-08-26T05:48:53.258Z,100242.22
2022-08-26T05:53:57.029Z,100239.19
2022-08-26T05:59:02.696Z,100232.66
2022-08-26T06:04:08.310Z,100244.22
2022-08-26T06:09:11.722Z,100244.28
2022-08-26T06:14:14.464Z,100239.81
2022-08-26T06:19:17.815Z,100225.69
2022-08-26T06:24:39.047Z,100239.50
2022-08-26T06:29:43.013Z,100255.00
2022-08-26T06:34:45.904Z,100236.44
2022-08-26T06:39:48.862Z,100236.78
2022-08-26T06:44:54.008Z,100227.34
2022-08-26T06:49:56.777Z,100216.78
2022-08-26T06:54:59.660Z,100215.69
2022-08-26T07:00:05.995Z,100224.97
2022-08-26T07:05:09.671Z,100224.88
2022-08-26T07:10:12.598Z,100215.34
2022-08-26T07:15:15.654Z,100209.19
2022-08-26T07:20:18.886Z,100196.41
2022-08-26T07:25:22.175Z,100209.00
2022-08-26T07:30:26.008Z,100198.81
2022-08-26T07:35:28.893Z,100202.84
2022-08-26T07:40:32.529Z,100205.53
2022-08-26T07:45:36.607Z,100200.38
2022-08-26T07:50:49.505Z,100195.13
2022-08-26T07:55:53.440Z,100203.13
2022-08-26T08:00:56.289Z,100198.44
2022-08-26T08:05:59.029Z,100200.94
2022-08-26T08:11:02.323Z,100189.25
2022-08-26T08:16:06.098Z,100174.44
2022-08-26T08:21:21.826Z,100180.97
2022-08-26T08:26:26.993Z,100176.66
2022-08-26T08:31:56.940Z,100169.75
2022-08-26T08:36:55.684Z,100181.25
2022-08-26T08:42:06.364Z,100184.59
2022-08-26T08:47:34.589Z,100171.53
2022-08-26T08:52:37.761Z,100170.47
2022-08-26T08:57:46.522Z,100173.13
2022-08-26T09:02:59.333Z,100171.47
2022-08-26T09:08:06.615Z,100177.56
2022-08-26T09:13:16.793Z,100168.06
2022-08-26T09:18:38.048Z,100159.97
2022-08-26T09:23:43.669Z,100170.19
2022-08-26T09:29:01.391Z,100157.38
2022-08-26T09:34:23.471Z,100160.94
2022-08-26T09:39:34.580Z,100170.47
2022-08-26T09:44:58.802Z,100163.50
2022-08-26T09:50:20.932Z,100160.03
2022-08-26T09:55:24.219Z,100170.66
2022-08-26T10:00:35.170Z,100159.69
2022-08-26T10:05:48.008Z,100160.03
2022-08-26T10:10:53.100Z,100160.66
2022-08-26T10:15:58.532Z,100149.47
2022-08-26T10:21:11.775Z,100127.03
2022-08-26T10:26:20.191Z,100134.69
2022-08-26T10:31:41.930Z,100137.75
2022-08-26T10:37:13.962Z,100148.44
2022-08-26T10:42:43.039Z,100133.81
2022-08-26T10:47:51.153Z,100144.13
2022-08-26T10:53:09.695Z,100135.56
2022-08-26T10:58:26.506Z,100130.50
2022-08-26T11:03:58.113Z,100128.84
2022-08-26T11:09:03.390Z,100119.69
2022-08-26T11:14:07.886Z,100125.88
2022-08-26T11:19:13.329Z,100116.41
2022-08-26T11:24:34.667Z,100117.28
2022-08-26T11:30:22.043Z,100114.78
2022-08-26T11:35:26.848Z,100119.16
2022-08-26T11:40:33.713Z,100107.19
2022-08-26T11:45:41.009Z,100106.47
2022-08-26T11:51:07.078Z,100104.00
2022-08-26T11:56:24.974Z,100094.63
2022-08-26T12:01:36.208Z,100099.91
2022-08-26T12:06:44.972Z,100079.38
2022-08-26T12:11:48.064Z,100085.47
2022-08-26T12:16:51.634Z,100076.97
2022-08-26T12:22:20.968Z,100075.31
2022-08-26T12:27:26.886Z,100069.53
2022-08-26T12:32:34.111Z,100066.34
2022-08-26T12:37:40.843Z,100051.75
2022-08-26T12:42:47.216Z,100048.88
2022-08-26T12:47:55.644Z,100056.38
2022-08-26T12:53:01.025Z,100056.75
2022-08-26T12:58:25.108Z,100048.91
2022-08-26T13:03:29.212Z,100050.63
2022-08-26T13:08:31.954Z,100050.97
2022-08-26T13:13:35.505Z,100046.25
2022-08-26T13:18:38.362Z,100044.09
2022-08-26T13:23:42.589Z,100053.03
2022-08-26T13:28:45.461Z,100045.59
2022-08-26T13:34:04.238Z,100049.22
2022-08-26T13:39:07.166Z,100047.63
2022-08-26T13:44:10.457Z,100040.78
2022-08-26T13:49:13.306Z,100047.69
2022-08-26T13:54:16.289Z,100041.72
2022-08-26T13:59:19.834Z,100056.31
2022-08-26T14:04:27.298Z,100057.19
2022-08-26T14:09:30.364Z,100047.72
2022-08-26T14:14:33.289Z,100058.00
2022-08-26T14:19:36.201Z,100034.84
2022-08-26T14:24:38.928Z,100036.50
2022-08-26T14:29:42.129Z,100027.91
2022-08-26T14:34:44.971Z,100033.03
2022-08-26T14:39:47.790Z,100015.81
2022-08-26T14:44:54.713Z,100035.53
2022-08-26T14:49:57.800Z,100019.19
2022-08-26T14:55:00.502Z,100015.75
2022-08-26T15:00:03.675Z,100020.88
2022-08-26T15:05:08.893Z,99999.44
2022-08-26T15:10:14.436Z,100014.97
2022-08-26T15:15:18.941Z,100019.25
2022-08-26T15:20:21.745Z,100006.38
2022-08-26T15:25:24.864Z,100008.09
2022-08-26T15:30:28.176Z,100012.34
2022-08-26T15:35:32.987Z,100008.09
2022-08-26T15:40:41.291Z,100002.16
2022-08-26T15:45:44.029Z,99985.00
2022-08-26T15:50:59.298Z,99996.13
2022-08-26T15:56:02.059Z,99989.31
2022-08-26T16:01:04.981Z,99988.44
2022-08-26T16:06:08.592Z,99979.88
2022-08-26T16:11:14.245Z,99977.28
2022-08-26T16:16:17.403Z,99973.00
2022-08-26T16:21:23.347Z,99970.44
2022-08-26T16:26:30.132Z,99961.00
2022-08-26T16:31:33.200Z,99961.91
2022-08-26T16:36:37.945Z,99966.22
2022-08-26T16:41:40.848Z,99961.91
2022-08-26T16:46:43.556Z,99925.03
2022-08-26T16:51:50.116Z,99956.72
2022-08-26T16:56:52.823Z,99951.59
2022-08-26T17:01:55.639Z,99943.91
2022-08-26T17:06:59.491Z,99923.34
2022-08-26T17:12:02.270Z,99923.28
2022-08-26T17:17:06.463Z,99917.25
2022-08-26T17:22:09.969Z,99918.94
2022-08-26T17:27:12.867Z,99907.81
2022-08-26T17:32:15.784Z,99883.78
2022-08-26T17:37:18.543Z,99893.22
2022-08-26T17:42:21.370Z,99875.25
2022-08-26T17:47:34.698Z,99829.00
2022-08-26T17:52:38.336Z,99877.00
2022-08-26T17:57:42.370Z,99866.75
2022-08-26T18:02:45.707Z,99858.22
2022-08-26T18:07:48.916Z,99856.53
2022-08-26T18:12:52.057Z,99846.25
2022-08-26T18:17:54.682Z,99849.66
2022-08-26T18:22:57.419Z,99853.94
2022-08-26T18:28:00.753Z,99839.38
2022-08-26T18:33:03.681Z,99831.69
2022-08-26T18:38:11.014Z,99819.69
2022-08-26T18:43:14.532Z,99804.25
2022-08-26T18:48:17.238Z,99814.53
2022-08-26T18:53:20.753Z,99816.13
2022-08-26T18:58:23.858Z,99792.91
2022-08-26T19:03:29.037Z,99790.25
2022-08-26T19:08:31.966Z,99795.44
2022-08-26T19:13:35.890Z,99781.84
2022-08-26T19:18:38.657Z,99765.66
2022-08-26T19:23:41.530Z,99765.72
2022-08-26T19:28:44.407Z,99759.75
2022-08-26T19:33:47.187Z,99758.03
2022-08-26T19:38:50.513Z,99742.59
2022-08-26T19:43:53.387Z,99722.06
2022-08-26T19:49:01.356Z,99723.75
2022-08-26T19:54:04.658Z,99711.78
2022-08-26T19:59:07.500Z,99709.25
2022-08-26T20:04:10.315Z,99679.25
2022-08-26T20:09:13.206Z,99678.44
2022-08-26T20:14:18.207Z,99665.56
2022-08-26T20:19:41.629Z,99667.28
2022-08-26T20:24:45.389Z,99652.72
2022-08-26T20:29:48.303Z,99651.03
2022-08-26T20:34:51.495Z,99650.16
2022-08-26T20:39:55.668Z,99629.63
2022-08-26T20:44:58.731Z,99640.75
2022-08-26T20:50:02.857Z,99622.78
2022-08-26T20:55:06.490Z,99626.22
2022-08-26T21:00:12.564Z,99628.75
2022-08-26T21:05:19.019Z,99612.53
2022-08-26T21:10:21.907Z,99617.66
2022-08-26T21:15:26.461Z,99597.13
2022-08-26T21:20:29.368Z,99597.94
2022-08-26T21:25:32.229Z,99600.47
2022-08-26T21:30:38.043Z,99578.22
2022-08-26T21:35:41.290Z,99575.66
2022-08-26T21:40:44.553Z,99558.56
2022-08-26T21:45:47.424Z,99571.41
2022-08-26T21:50:50.733Z,99567.09
2022-08-26T21:55:53.560Z,99558.56
2022-08-26T22:00:56.528Z,99542.28
2022-08-26T22:06:01.762Z,99535.44
2022-08-26T22:11:05.235Z,99496.13
2022-08-26T22:16:08.773Z,99518.34
2022-08-26T22:21:20.927Z,99502.09
2022-08-26T22:26:26.062Z,99486.75
2022-08-26T22:31:37.147Z,99485.94
2022-08-26T22:36:43.925Z,99482.53
2022-08-26T22:41:48.942Z,99437.22
2022-08-26T22:46:54.580Z,99487.66
2022-08-26T22:51:57.346Z,99469.69
2022-08-26T22:57:00.085Z,99473.16
2022-08-26T23:02:02.985Z,99476.53
2022-08-26T23:07:06.365Z,99477.41
2022-08-26T23:12:09.237Z,99467.13
2022-08-26T23:17:12.640Z,99456.03
2022-08-26T23:22:17.380Z,99455.16
2022-08-26T23:27:20.232Z,99441.44
2022-08-26T23:32:23.057Z,99437.16
2022-08-26T23:37:27.621Z,99414.06
2022-08-26T23:42:30.912Z,99420.06
2022-08-26T23:47:34.002Z,99433.75
2022-08-26T23:52:55.371Z,99449.16
2022-08-26T23:57:58.535Z,99452.59
